createdAt,value
2023-02-11T17:28:56.927Z,19.12
2023-02-11T17:30:00.130Z,19.39
2023-02-11T17:31:03.278Z,19.43
2023-02-11T17:32:06.507Z,19.42
2023-02-11T17:33:09.451Z,19.42
2023-02-11T17:34:12.301Z,19.41
2023-02-11T17:35:15.132Z,19.42
2023-02-11T17:36:17.951Z,19.42
2023-02-11T17:37:20.712Z,19.42
2023-02-11T17:38:23.470Z,19.42
2023-02-11T17:39:26.340Z,19.42
2023-02-11T17:40:29.062Z,19.42
2023-02-11T17:41:31.789Z,19.42
2023-02-11T17:42:34.532Z,19.42
2023-02-11T17:43:37.267Z,19.42
2023-02-11T17:44:40.105Z,19.42
2023-02-11T17:45:43.098Z,19.42
2023-02-11T17:46:45.891Z,19.43
2023-02-11T17:47:48.787Z,19.44
2023-02-11T17:48:51.478Z,19.45
2023-02-11T17:49:54.197Z,19.45
2023-02-11T17:50:56.975Z,19.44
2023-02-11T17:52:09.735Z,19.43
2023-02-11T17:53:12.014Z,19.45
2023-02-11T17:54:14.720Z,19.45
2023-02-11T17:55:17.438Z,19.46
2023-02-11T17:56:20.195Z,19.46
2023-02-11T17:57:22.890Z,19.46
2023-02-11T17:58:25.589Z,19.47
2023-02-11T17:59:28.296Z,19.46
2023-02-11T18:00:31.111Z,19.47
2023-02-11T18:01:33.903Z,19.47
2023-02-11T18:02:36.602Z,19.48
2023-02-11T18:03:39.365Z,19.47
2023-02-11T18:04:42.577Z,19.48
2023-02-11T18:05:45.361Z,19.47
2023-02-11T18:06:48.124Z,19.48
2023-02-11T18:07:50.851Z,19.48
2023-02-11T18:08:58.146Z,19.48
2023-02-11T18:10:00.578Z,19.48
2023-02-11T18:11:03.281Z,19.48
2023-02-11T18:12:07.340Z,19.49
2023-02-11T18:13:09.983Z,19.48
2023-02-11T18:14:12.731Z,19.48
2023-02-11T18:15:15.432Z,19.48
2023-02-11T18:16:18.486Z,19.47
2023-02-11T18:17:21.281Z,19.47
2023-02-11T18:18:24.014Z,19.47
2023-02-11T18:19:26.754Z,19.47
2023-02-11T18:20:29.521Z,19.47
2023-02-11T18:21:32.251Z,19.46
2023-02-11T18:22:35.021Z,19.46
2023-02-11T18:23:37.713Z,19.45
2023-02-11T18:24:40.473Z,19.45
2023-02-11T18:25:43.200Z,19.45
2023-02-11T18:26:45.901Z,19.45
2023-02-11T18:27:48.617Z,19.45
2023-02-11T18:28:51.332Z,19.45
2023-02-11T18:29:54.071Z,19.45
2023-02-11T18:30:56.912Z,19.44
2023-02-11T18:32:00.097Z,19.43
2023-02-11T18:33:02.986Z,19.43
2023-02-11T18:34:05.662Z,19.42
2023-02-11T18:35:08.398Z,19.43
2023-02-11T18:36:11.124Z,19.43
2023-02-11T18:37:13.864Z,19.43
2023-02-11T18:38:16.539Z,19.43
2023-02-11T18:39:19.218Z,19.43
2023-02-11T18:40:21.951Z,19.43
2023-02-11T18:41:24.691Z,19.43
2023-02-11T18:42:27.431Z,19.43
2023-02-11T18:43:30.152Z,19.42
2023-02-11T18:44:32.885Z,19.43
2023-02-11T18:45:35.833Z,19.42
2023-02-11T18:46:38.718Z,19.42
2023-02-11T18:47:41.588Z,19.42
2023-02-11T18:48:44.300Z,19.42
2023-02-11T18:49:46.993Z,19.41
2023-02-11T18:50:52.179Z,19.41
2023-02-11T18:51:54.750Z,19.42
2023-02-11T18:52:57.464Z,19.41
2023-02-11T18:54:00.204Z,19.41
2023-02-11T18:55:02.964Z,19.41
2023-02-11T18:56:05.696Z,19.41
2023-02-11T18:57:09.914Z,19.41
2023-02-11T18:58:12.584Z,19.41
2023-02-11T18:59:15.329Z,19.4
2023-02-11T19:00:18.066Z,19.4
2023-02-11T19:01:22.518Z,19.39
2023-02-11T19:02:25.193Z,19.39
2023-02-11T19:03:27.974Z,19.39
2023-02-11T19:04:30.956Z,19.39
2023-02-11T19:05:33.749Z,19.39
2023-02-11T19:06:36.528Z,19.39
2023-02-11T19:07:39.241Z,19.39
2023-02-11T19:08:41.970Z,19.4
2023-02-11T19:09:44.691Z,19.38
2023-02-11T19:10:47.414Z,19.38
2023-02-11T19:11:50.265Z,19.38
2023-02-11T19:12:53.115Z,19.38
2023-02-11T19:13:55.782Z,19.37
2023-02-11T19:14:58.486Z,19.37
2023-02-11T19:16:01.199Z,19.37
2023-02-11T19:17:04.143Z,19.37
2023-02-11T19:18:06.879Z,19.37
2023-02-11T19:19:09.699Z,19.38
2023-02-11T19:20:12.436Z,19.37
2023-02-11T19:21:15.229Z,19.37
2023-02-11T19:22:17.926Z,19.35
2023-02-11T19:23:20.620Z,19.37
2023-02-11T19:24:23.316Z,19.37
2023-02-11T19:25:26.104Z,19.36
2023-02-11T19:26:28.874Z,19.36
2023-02-11T19:27:31.557Z,19.36
2023-02-11T19:28:34.486Z,19.35
2023-02-11T19:29:37.292Z,19.35
2023-02-11T19:30:40.408Z,19.35
2023-02-11T19:31:43.650Z,19.33
2023-02-11T19:32:46.589Z,19.34
2023-02-11T19:33:49.274Z,19.35
2023-02-11T19:34:52.056Z,19.33
2023-02-11T19:35:54.802Z,19.34
2023-02-11T19:36:57.560Z,19.33
2023-02-11T19:38:00.388Z,19.32
2023-02-11T19:39:03.066Z,19.32
2023-02-11T19:40:05.850Z,19.33
2023-02-11T19:41:08.553Z,19.33
2023-02-11T19:42:11.276Z,19.32
2023-02-11T19:43:13.996Z,19.32
2023-02-11T19:44:16.753Z,19.32
2023-02-11T19:45:19.533Z,19.32
2023-02-11T19:46:22.515Z,19.32
2023-02-11T19:47:25.228Z,19.31
2023-02-11T19:48:27.983Z,19.31
2023-02-11T19:49:30.643Z,19.31
2023-02-11T19:50:33.476Z,19.31
2023-02-11T19:51:36.196Z,19.3
2023-02-11T19:52:38.842Z,19.3
2023-02-11T19:53:41.592Z,19.3
2023-02-11T19:54:44.295Z,19.29
2023-02-11T19:55:46.973Z,19.28
2023-02-11T19:56:49.700Z,19.28
2023-02-11T19:57:52.454Z,19.29
2023-02-11T19:58:55.197Z,19.28
2023-02-11T19:59:57.989Z,19.28
2023-02-11T20:01:00.829Z,19.28
2023-02-11T20:02:03.621Z,19.28
2023-02-11T20:03:06.352Z,19.27
2023-02-11T20:04:09.087Z,19.27
2023-02-11T20:05:11.838Z,19.27
2023-02-11T20:06:14.644Z,19.26
2023-02-11T20:07:17.401Z,19.27
2023-02-11T20:08:21.596Z,19.26
2023-02-11T20:09:24.193Z,19.26
2023-02-11T20:10:26.928Z,19.26
2023-02-11T20:11:29.659Z,19.25
2023-02-11T20:12:32.414Z,19.25
2023-02-11T20:13:35.152Z,19.26
2023-02-11T20:14:37.827Z,19.25
2023-02-11T20:15:40.749Z,19.24
2023-02-11T20:16:50.418Z,19.23
2023-02-11T20:17:52.995Z,19.23
2023-02-11T20:18:55.678Z,19.22
2023-02-11T20:19:58.394Z,19.23
2023-02-11T20:21:01.108Z,19.24
2023-02-11T20:22:03.883Z,19.23
2023-02-11T20:23:06.613Z,19.21
2023-02-11T20:24:09.348Z,19.23
2023-02-11T20:25:12.081Z,19.22
2023-02-11T20:26:14.832Z,19.21
2023-02-11T20:27:20.357Z,19.22
2023-02-11T20:28:23.008Z,19.21
2023-02-11T20:29:35.864Z,19.21
2023-02-11T20:30:38.144Z,19.21
2023-02-11T20:31:41.330Z,19.2
2023-02-11T20:32:44.279Z,19.2
2023-02-11T20:33:47.002Z,19.2
2023-02-11T20:34:49.750Z,19.2
2023-02-11T20:35:53.392Z,19.19
2023-02-11T20:36:56.304Z,19.2
2023-02-11T20:37:59.107Z,19.19
2023-02-11T20:39:01.828Z,19.19
2023-02-11T20:40:04.564Z,19.19
2023-02-11T20:41:07.283Z,19.19
2023-02-11T20:42:10.024Z,19.19
2023-02-11T20:43:12.698Z,19.18
2023-02-11T20:44:15.436Z,19.18
2023-02-11T20:45:18.156Z,19.18
2023-02-11T20:46:21.027Z,19.18
2023-02-11T20:47:23.817Z,19.18
2023-02-11T20:48:26.491Z,19.18
2023-02-11T20:49:29.196Z,19.17
2023-02-11T20:50:31.896Z,19.16
2023-02-11T20:51:34.628Z,19.16
2023-02-11T20:52:37.344Z,19.17
2023-02-11T20:53:40.134Z,19.17
2023-02-11T20:54:42.909Z,19.17
2023-02-11T20:55:45.580Z,19.17
2023-02-11T20:56:48.717Z,19.17
2023-02-11T20:57:51.415Z,19.17
2023-02-11T20:58:54.175Z,19.17
2023-02-11T20:59:56.875Z,19.17
2023-02-11T21:00:59.612Z,19.17
2023-02-11T21:02:02.540Z,19.17
2023-02-11T21:03:05.497Z,19.16
2023-02-11T21:04:08.264Z,19.16
2023-02-11T21:05:10.998Z,19.16
2023-02-11T21:06:13.710Z,19.16
2023-02-11T21:07:17.454Z,19.16
2023-02-11T21:08:20.106Z,19.16
2023-02-11T21:09:22.923Z,19.15
2023-02-11T21:10:26.251Z,19.15
2023-02-11T21:11:28.970Z,19.15
2023-02-11T21:12:31.663Z,19.15
2023-02-11T21:13:34.388Z,19.14
2023-02-11T21:14:37.100Z,19.15
2023-02-11T21:15:39.896Z,19.15
2023-02-11T21:16:42.808Z,19.14
2023-02-11T21:17:45.518Z,19.14
2023-02-11T21:18:48.224Z,19.12
2023-02-11T21:19:50.983Z,19.14
2023-02-11T21:20:53.697Z,19.13
2023-02-11T21:21:56.661Z,19.13
2023-02-11T21:22:59.351Z,19.13
2023-02-11T21:24:02.078Z,19.14
2023-02-11T21:25:04.850Z,19.14
2023-02-11T21:26:07.622Z,19.14
2023-02-11T21:27:10.316Z,19.14
2023-02-11T21:28:13.234Z,19.14
2023-02-11T21:29:16.026Z,19.14
2023-02-11T21:30:18.741Z,19.13
2023-02-11T21:31:22.024Z,19.12
2023-02-11T21:32:24.947Z,19.13
2023-02-11T21:33:27.648Z,19.13
2023-02-11T21:34:30.367Z,19.12
2023-02-11T21:35:33.105Z,19.11
2023-02-11T21:36:35.798Z,19.12
2023-02-11T21:37:38.509Z,19.12
2023-02-11T21:38:41.235Z,19.13
2023-02-11T21:39:43.931Z,19.11
2023-02-11T21:40:46.769Z,19.11
2023-02-11T21:41:49.484Z,19.1
2023-02-11T21:42:52.186Z,19.11
2023-02-11T21:43:54.940Z,19.11
2023-02-11T21:44:57.655Z,19.11
2023-02-11T21:46:00.596Z,19.1
2023-02-11T21:47:03.764Z,19.11
2023-02-11T21:48:06.575Z,19.11
2023-02-11T21:49:09.352Z,19.11
2023-02-11T21:50:12.985Z,19.11
2023-02-11T21:51:15.709Z,19.11
2023-02-11T21:52:18.423Z,19.1
2023-02-11T21:53:21.131Z,19.11
2023-02-11T21:54:23.864Z,19.1
2023-02-11T21:55:26.590Z,19.1
2023-02-11T21:56:29.400Z,19.11
2023-02-11T21:57:32.196Z,19.11
2023-02-11T21:58:34.901Z,19.1
2023-02-11T21:59:37.613Z,19.1
2023-02-11T22:00:40.512Z,19.09
2023-02-11T22:01:43.326Z,19.1
2023-02-11T22:02:49.993Z,19.1
2023-02-11T22:03:52.494Z,19.1
2023-02-11T22:04:55.469Z,19.1
2023-02-11T22:05:58.300Z,19.1
2023-02-11T22:07:01.002Z,19.1
2023-02-11T22:08:03.649Z,19.1
2023-02-11T22:09:06.385Z,19.1
2023-02-11T22:10:09.129Z,19.1
2023-02-11T22:11:11.857Z,19.1
2023-02-11T22:12:14.772Z,19.09
2023-02-11T22:13:17.664Z,19.1
2023-02-11T22:14:20.388Z,19.1
2023-02-11T22:15:23.075Z,19.1
2023-02-11T22:16:26.017Z,19.1
2023-02-11T22:17:29.077Z,19.1
2023-02-11T22:18:31.946Z,19.1
2023-02-11T22:19:36.163Z,19.09
2023-02-11T22:20:38.763Z,19.1
2023-02-11T22:21:41.455Z,19.1
2023-02-11T22:22:44.134Z,19.1
2023-02-11T22:23:46.896Z,19.09
2023-02-11T22:24:49.612Z,19.09
2023-02-11T22:25:53.262Z,19.09
2023-02-11T22:26:56.382Z,19.09
2023-02-11T22:27:59.262Z,19.09
2023-02-11T22:29:02.063Z,19.09
2023-02-11T22:30:04.768Z,19.09
2023-02-11T22:31:07.816Z,19.09
2023-02-11T22:32:11.078Z,19.08
2023-02-11T22:33:13.915Z,19.09
2023-02-11T22:34:16.596Z,19.09
2023-02-11T22:35:19.300Z,19.08
2023-02-11T22:36:22.077Z,19.09
2023-02-11T22:37:24.795Z,19.08
2023-02-11T22:38:27.540Z,19.08
2023-02-11T22:39:30.243Z,19.09
2023-02-11T22:40:32.966Z,19.08
2023-02-11T22:41:35.649Z,19.09
2023-02-11T22:42:38.349Z,19.09
2023-02-11T22:43:41.149Z,19.08
2023-02-11T22:44:43.849Z,19.08
2023-02-11T22:45:46.736Z,19.08
2023-02-11T22:46:49.492Z,19.08
2023-02-11T22:47:52.216Z,19.08
2023-02-11T22:48:54.980Z,19.09
2023-02-11T22:49:57.685Z,19.08
2023-02-11T22:51:00.379Z,19.08
2023-02-11T22:52:03.111Z,19.08
2023-02-11T22:53:05.782Z,19.07
2023-02-11T22:54:08.489Z,19.08
2023-02-11T22:55:11.215Z,19.08
2023-02-11T22:56:16.108Z,19.08
2023-02-11T22:57:18.684Z,19.07
2023-02-11T22:58:21.342Z,19.07
2023-02-11T22:59:24.100Z,19.08
2023-02-11T23:00:26.807Z,19.07
2023-02-11T23:01:29.799Z,19.07
2023-02-11T23:02:32.835Z,19.08
2023-02-11T23:03:35.577Z,19.07
2023-02-11T23:04:38.342Z,19.07
2023-02-11T23:05:41.082Z,19.06
2023-02-11T23:06:44.120Z,19.07
2023-02-11T23:07:46.804Z,19.06
2023-02-11T23:08:49.512Z,19.07
2023-02-11T23:09:52.239Z,19.06
2023-02-11T23:10:54.910Z,19.06
2023-02-11T23:11:57.632Z,19.06
2023-02-11T23:13:00.431Z,19.07
2023-02-11T23:14:03.155Z,19.06
2023-02-11T23:15:05.930Z,19.06
2023-02-11T23:16:09.039Z,19.06
2023-02-11T23:17:11.805Z,19.07
2023-02-11T23:18:14.538Z,19.06
2023-02-11T23:19:17.261Z,19.06
2023-02-11T23:20:19.931Z,19.06
2023-02-11T23:21:23.705Z,19.06
2023-02-11T23:22:26.471Z,19.05
2023-02-11T23:23:29.206Z,19.06
2023-02-11T23:24:31.923Z,19.06
2023-02-11T23:25:34.651Z,19.06
2023-02-11T23:26:37.339Z,19.06
2023-02-11T23:27:40.095Z,19.06
2023-02-11T23:28:42.868Z,19.06
2023-02-11T23:29:45.610Z,19.07
2023-02-11T23:30:48.563Z,19.08
2023-02-11T23:31:51.883Z,19.08
2023-02-11T23:32:54.731Z,19.06
2023-02-11T23:33:57.471Z,19.06
2023-02-11T23:35:00.293Z,19.07
2023-02-11T23:36:03.027Z,19.06
2023-02-11T23:37:05.832Z,19.05
2023-02-11T23:38:08.590Z,19.06
2023-02-11T23:39:11.314Z,19.05
2023-02-11T23:40:14.074Z,19.05
2023-02-11T23:41:16.837Z,19.05
2023-02-11T23:42:19.612Z,19.05
2023-02-11T23:43:24.622Z,19.05
2023-02-11T23:44:27.125Z,19.06
2023-02-11T23:45:29.835Z,19.05
2023-02-11T23:46:32.646Z,19.06
2023-02-11T23:47:35.422Z,19.04
2023-02-11T23:48:38.210Z,19.04
2023-02-11T23:49:40.932Z,19.03
2023-02-11T23:50:43.644Z,19.03
2023-02-11T23:51:46.346Z,19.05
2023-02-11T23:52:49.109Z,19.04
2023-02-11T23:53:51.853Z,19.03
2023-02-11T23:54:54.546Z,19.04
2023-02-11T23:55:57.631Z,19.04
2023-02-11T23:57:00.378Z,19.04
2023-02-11T23:58:03.047Z,19.03
2023-02-11T23:59:05.760Z,19.03
